Battleboro, North Carolina
Current Conditions -  °F | °C
As of 12:35 AM on Sunday 26 Oct 2014 (Local Time) from KETC Reporting Station
Clear Clear  
Wind Chill: 57°   Ceiling: Unl
Heat Index: 57°   Visibility: 10mi
Dew Point: 46°   Wind: 7mph
Humidity: 68%   Direction: 250°WSW
Pressure: 29.84"   Gusts: NA
Location:  36.05°N, 77.75°W
Report Text: KETC 260435Z AUTO 25006KT 10SM CLR 14/08 A2984 RMK AO2 T01370079
Loading
Personal Weather Stations






























Interactive Weather Map
Tropical Storm Tracking
New forecast layout! Learn more

10-Day Weather Forecast

Advertisements
Track Severe Weather on mobile